Dades meteomassalio
Diari Summary for Gener 16, 2018 Units:  Both    English   Metric
« Previous Day
Next Day »
Diari Semanal Mensual Anual Personalitzat
  Maxima: Minima: Mijana:
Temperatura: TemperatureC °F /  -17.8 °C -0.6 °F /  -18.1 °C 8.1 °F /  -13.3 °C
Rosada: DewpointC °F /  -17.8 °C -6.6 °F /  -21.4 °C 2.4 °F /  -16.4 °C
Humitat: Humidity % 55 % 67 %
Velocitat del vent: WindSpeedKMH mph /  0 km/h - 18.2 mph /  29.3 km/h
Racha vent: WindSpeedGustKMH mph /  0 km/h - -
Vent:- - NW
Pressio: PressurehPa in /  0 hPa 1024.9 in /  34703.1 hPa -
Pluja: 0.0 in /  0 mm    
Historical Graphs
 
 
Tabular Data for Gener 16, 2018
Time Temperature Dew Point Pressure Wind Wind Speed Wind Gust Humidity Rainfall Rate (Hourly) solar Conditions
TemperatureC °F /  -17.8 °C DewpointC °F /  -17.8 °C PressurehPa in /  0 hPa Calm     Humidity % HourlyPrecipMM in /  0 mm SolarRadiationWatts/m^2 W/m2 Conditions
00:00 1.1 °F /  -17.2 °C -0.7 °F /  -18.2 °C 1028.7 in /  34831.8 hPa NNW 1.9 mph /  3.1 km/h 1.9 mph /  3.1 km/h 88 % 0.0 in /  0 mm 0.0 W/m2 CLR
00:17 1.1 °F /  -17.2 °C -0.8 °F /  -18.2 °C 1028.7 in /  34831.8 hPa Calm     87 % 0.0 in /  0 mm 0.0 W/m2 CLR
00:23 1.1 °F /  -17.2 °C -0.7 °F /  -18.2 °C 1028.7 in /  34831.8 hPa Calm     88 % 0.0 in /  0 mm 0.0 W/m2 CLR
00:42 0.6 °F /  -17.4 °C -1.2 °F /  -18.4 °C 1028.3 in /  34818.2 hPa WNW 1.9 mph /  3.1 km/h   88 % 0.0 in /  0 mm 0.0 W/m2 CLR
00:59 0.6 °F /  -17.4 °C -2.3 °F /  -19.1 °C 1028.3 in /  34818.2 hPa Calm     81 % 0.0 in /  0 mm 0.0 W/m2 CLR
01:07 0.6 °F /  -17.4 °C -2.7 °F /  -19.3 °C 1028.3 in /  34818.2 hPa Calm     79 % 0.0 in /  0 mm 0.0 W/m2 CLR
01:13 0.0 °F /  -17.8 °C -3.2 °F /  -19.6 °C 1028.0 in /  34808.1 hPa West 5.6 mph /  9 km/h 5.6 mph /  9 km/h 79 % 0.0 in /  0 mm 0.0 W/m2 CLR
01:32 0.0 °F /  -17.8 °C -3.4 °F /  -19.7 °C 1027.7 in /  34797.9 hPa West 1.9 mph /  3.1 km/h   78 % 0.0 in /  0 mm 0.0 W/m2 CLR
01:41 0.0 °F /  -17.8 °C -3.6 °F /  -19.8 °C 1027.7 in /  34797.9 hPa Calm     77 % 0.0 in /  0 mm 0.0 W/m2 CLR
01:46 0.0 °F /  -17.8 °C -3.7 °F /  -19.8 °C 1027.7 in /  34797.9 hPa Calm     76 % 0.0 in /  0 mm 0.0 W/m2 CLR
02:23 1.1 °F /  -17.2 °C -4.2 °F /  -20.1 °C 1027.7 in /  34797.9 hPa NW 5.6 mph /  9 km/h 5.6 mph /  9 km/h 68 % 0.0 in /  0 mm 0.0 W/m2 CLR
02:51 0.6 °F /  -17.4 °C -5.9 °F /  -21.1 °C 1027.3 in /  34784.4 hPa WNW 5.6 mph /  9 km/h 5.6 mph /  9 km/h 62 % 0.0 in /  0 mm 0.0 W/m2 CLR
03:08 0.6 °F /  -17.4 °C -5.5 °F /  -20.8 °C 1027.3 in /  34784.4 hPa Calm     64 % 0.0 in /  0 mm 0.0 W/m2 CLR
03:14 0.6 °F /  -17.4 °C -5.3 °F /  -20.7 °C 1027.3 in /  34784.4 hPa WNW 5.6 mph /  9 km/h 5.6 mph /  9 km/h 65 % 0.0 in /  0 mm 0.0 W/m2 CLR
03:33 0.0 °F /  -17.8 °C -6.0 °F /  -21.1 °C 1027.0 in /  34774.2 hPa WNW 3.7 mph /  6 km/h 3.7 mph /  6 km/h 64 % 0.0 in /  0 mm 0.0 W/m2 CLR
03:44 0.0 °F /  -17.8 °C -5.8 °F /  -21 °C 1027.0 in /  34774.2 hPa Calm     65 % 0.0 in /  0 mm 0.0 W/m2 CLR
04:18 -0.6 °F /  -18.1 °C -6.6 °F /  -21.4 °C 1027.0 in /  34774.2 hPa Calm     64 % 0.0 in /  0 mm 0.0 W/m2 CLR
04:48 1.1 °F /  -17.2 °C -4.9 °F /  -20.5 °C 1027.0 in /  34774.2 hPa Calm     64 % 0.0 in /  0 mm 0.0 W/m2 CLR
04:56 1.1 °F /  -17.2 °C -4.7 °F /  -20.4 °C 1026.6 in /  34760.7 hPa Calm     65 % 0.0 in /  0 mm 0.0 W/m2 CLR
05:17 0.0 °F /  -17.8 °C -5.4 °F /  -20.8 °C 1026.3 in /  34750.5 hPa WNW 1.9 mph /  3.1 km/h 1.9 mph /  3.1 km/h 67 % 0.0 in /  0 mm 0.0 W/m2 CLR
05:38 0.0 °F /  -17.8 °C -5.2 °F /  -20.7 °C 1026.6 in /  34760.7 hPa Calm     68 % 0.0 in /  0 mm 0.0 W/m2 CLR
06:01 0.0 °F /  -17.8 °C -4.8 °F /  -20.4 °C 1026.6 in /  34760.7 hPa NW 5.6 mph /  9 km/h 5.6 mph /  9 km/h 70 % 0.0 in /  0 mm 0.0 W/m2 CLR
06:11 0.0 °F /  -17.8 °C -5.0 °F /  -20.6 °C 1026.6 in /  34760.7 hPa NW 5.6 mph /  9 km/h 5.6 mph /  9 km/h 69 % 0.0 in /  0 mm 0.0 W/m2 CLR
06:18 0.0 °F /  -17.8 °C -5.0 °F /  -20.6 °C 1026.6 in /  34760.7 hPa NW 6.4 mph /  10.3 km/h 6.4 mph /  10.3 km/h 69 % 0.0 in /  0 mm 0.0 W/m2 CLR
06:34 0.0 °F /  -17.8 °C -5.2 °F /  -20.7 °C 1026.6 in /  34760.7 hPa WNW 16.7 mph /  26.9 km/h 16.7 mph /  26.9 km/h 68 % 0.0 in /  0 mm 0.0 W/m2 CLR
06:47 0.6 °F /  -17.4 °C -4.9 °F /  -20.5 °C 1026.6 in /  34760.7 hPa NW 20.4 mph /  32.8 km/h 20.4 mph /  32.8 km/h 67 % 0.0 in /  0 mm 0.0 W/m2 CLR
06:53 1.1 °F /  -17.2 °C -4.3 °F /  -20.2 °C 1026.6 in /  34760.7 hPa WNW 18.5 mph /  29.8 km/h 18.5 mph /  29.8 km/h 67 % 0.0 in /  0 mm 0.0 W/m2 CLR
06:59 1.1 °F /  -17.2 °C -4.3 °F /  -20.2 °C 1026.6 in /  34760.7 hPa NW 18.5 mph /  29.8 km/h 18.5 mph /  29.8 km/h 67 % 0.0 in /  0 mm 0.0 W/m2 CLR
07:06 1.1 °F /  -17.2 °C -4.3 °F /  -20.2 °C 1026.6 in /  34760.7 hPa WNW 20.4 mph /  32.8 km/h 20.4 mph /  32.8 km/h 67 % 0.0 in /  0 mm 0.0 W/m2 CLR
07:23 2.2 °F /  -16.6 °C -3.3 °F /  -19.6 °C 1026.6 in /  34760.7 hPa WNW 24.1 mph /  38.8 km/h 24.1 mph /  38.8 km/h 67 % 0.0 in /  0 mm 0.0 W/m2 CLR
07:30 2.8 °F /  -16.2 °C -2.7 °F /  -19.3 °C 1026.6 in /  34760.7 hPa NW 20.4 mph /  32.8 km/h 20.4 mph /  32.8 km/h 67 % 0.0 in /  0 mm 0.0 W/m2 CLR
07:40 5.6 °F /  -14.7 °C -0.1 °F /  -17.8 °C 1026.6 in /  34760.7 hPa WNW 18.5 mph /  29.8 km/h 18.5 mph /  29.8 km/h 67 % 0.0 in /  0 mm 0.0 W/m2 CLR
07:46 5.0 °F /  -15 °C -0.6 °F /  -18.1 °C 1026.6 in /  34760.7 hPa NW 25.9 mph /  41.7 km/h 25.9 mph /  41.7 km/h 67 % 0.0 in /  0 mm 0.0 W/m2 CLR
07:59 3.3 °F /  -15.9 °C -2.2 °F /  -19 °C 1026.6 in /  34760.7 hPa NW 18.5 mph /  29.8 km/h 18.5 mph /  29.8 km/h 67 % 0.0 in /  0 mm 0.0 W/m2 CLR
08:26 1.7 °F /  -16.8 °C -3.8 °F /  -19.9 °C 1027.3 in /  34784.4 hPa NW 18.5 mph /  29.8 km/h 18.5 mph /  29.8 km/h 67 % 0.0 in /  0 mm 5.0 W/m2 OVC
08:40 1.1 °F /  -17.2 °C -3.9 °F /  -19.9 °C 1027.3 in /  34784.4 hPa NW 3.2 mph /  5.1 km/h 3.2 mph /  5.1 km/h 69 % 0.0 in /  0 mm 11.0 W/m2 BKN
08:47 1.1 °F /  -17.2 °C -3.8 °F /  -19.9 °C 1027.3 in /  34784.4 hPa NNW 14.8 mph /  23.8 km/h 14.8 mph /  23.8 km/h 70 % 0.0 in /  0 mm 14.0 W/m2 BKN
09:23 8.3 °F /  -13.2 °C 2.8 °F /  -16.2 °C 1027.7 in /  34797.9 hPa NW 27.8 mph /  44.7 km/h 27.8 mph /  44.7 km/h 68 % 0.0 in /  0 mm 83.0 W/m2 FEW
09:39 8.9 °F /  -12.8 °C 3.3 °F /  -15.9 °C 1028.0 in /  34808.1 hPa WNW 31.5 mph /  50.7 km/h 31.5 mph /  50.7 km/h 68 % 0.0 in /  0 mm 102.0 W/m2 CLR
10:07 10.0 °F /  -12.2 °C 4.6 °F /  -15.2 °C 1028.3 in /  34818.2 hPa NW 27.8 mph /  44.7 km/h 27.8 mph /  44.7 km/h 69 % 0.0 in /  0 mm 132.0 W/m2 CLR
10:37 11.1 °F /  -11.6 °C 5.2 °F /  -14.9 °C 1028.7 in /  34831.8 hPa NW 20.9 mph /  33.6 km/h 20.9 mph /  33.6 km/h 67 % 0.0 in /  0 mm 287.0 W/m2 CLR
10:44 11.1 °F /  -11.6 °C 5.2 °F /  -14.9 °C 1028.7 in /  34831.8 hPa NW 22.5 mph /  36.2 km/h 22.5 mph /  36.2 km/h 67 % 0.0 in /  0 mm 301.0 W/m2 CLR
10:52 11.7 °F /  -11.3 °C 5.5 °F /  -14.7 °C 1028.7 in /  34831.8 hPa WNW 25.9 mph /  41.7 km/h 25.9 mph /  41.7 km/h 66 % 0.0 in /  0 mm 316.0 W/m2 CLR
11:50 13.3 °F /  -10.4 °C 6.7 °F /  -14.1 °C 1028.7 in /  34831.8 hPa NW 25.9 mph /  41.7 km/h 25.9 mph /  41.7 km/h 64 % 0.0 in /  0 mm 411.0 W/m2 CLR
12:07 13.9 °F /  -10.1 °C 7.2 °F /  -13.8 °C 1028.3 in /  34818.2 hPa NNW 25.9 mph /  41.7 km/h 25.9 mph /  41.7 km/h 64 % 0.0 in /  0 mm 431.0 W/m2 CLR
12:13 13.9 °F /  -10.1 °C 6.9 °F /  -13.9 °C 1028.3 in /  34818.2 hPa NNW 25.7 mph /  41.4 km/h 25.7 mph /  41.4 km/h 63 % 0.0 in /  0 mm 436.0 W/m2 CLR
12:26 13.9 °F /  -10.1 °C 7.2 °F /  -13.8 °C 1028.0 in /  34808.1 hPa NW 31.5 mph /  50.7 km/h 31.5 mph /  50.7 km/h 64 % 0.0 in /  0 mm 446.0 W/m2 CLR
12:32 13.9 °F /  -10.1 °C 7.2 °F /  -13.8 °C 1028.0 in /  34808.1 hPa NW 29.6 mph /  47.6 km/h 29.6 mph /  47.6 km/h 64 % 0.0 in /  0 mm 450.0 W/m2 CLR
12:38 14.4 °F /  -9.8 °C 7.5 °F /  -13.6 °C 1027.7 in /  34797.9 hPa NW 20.4 mph /  32.8 km/h 20.4 mph /  32.8 km/h 63 % 0.0 in /  0 mm 457.0 W/m2 CLR
12:54 15.0 °F /  -9.4 °C 8.0 °F /  -13.3 °C 1027.7 in /  34797.9 hPa NNW 24.1 mph /  38.8 km/h 24.1 mph /  38.8 km/h 63 % 0.0 in /  0 mm 459.0 W/m2 CLR
13:00 15.0 °F /  -9.4 °C 7.8 °F /  -13.4 °C 1027.3 in /  34784.4 hPa NW 29.6 mph /  47.6 km/h 29.6 mph /  47.6 km/h 62 % 0.0 in /  0 mm 461.0 W/m2 CLR
13:11 15.6 °F /  -9.1 °C 7.8 °F /  -13.4 °C 1027.3 in /  34784.4 hPa NW 37.0 mph /  59.5 km/h 37.0 mph /  59.5 km/h 60 % 0.0 in /  0 mm 462.0 W/m2 CLR
13:26 15.6 °F /  -9.1 °C 7.8 °F /  -13.4 °C 1026.6 in /  34760.7 hPa NW 24.1 mph /  38.8 km/h 24.1 mph /  38.8 km/h 60 % 0.0 in /  0 mm 464.0 W/m2 CLR
13:37 16.1 °F /  -8.8 °C 8.1 °F /  -13.3 °C 1026.3 in /  34750.5 hPa NW 24.1 mph /  38.8 km/h 24.1 mph /  38.8 km/h 59 % 0.0 in /  0 mm 464.0 W/m2 CLR
13:55 16.7 °F /  -8.5 °C 7.8 °F /  -13.4 °C 1026.0 in /  34740.4 hPa NW 35.2 mph /  56.6 km/h 35.2 mph /  56.6 km/h 56 % 0.0 in /  0 mm 473.0 W/m2 CLR
14:23 17.2 °F /  -8.2 °C 8.4 °F /  -13.1 °C 1026.0 in /  34740.4 hPa NNW 37.0 mph /  59.5 km/h 37.0 mph /  59.5 km/h 56 % 0.0 in /  0 mm 438.0 W/m2 CLR
14:44 17.2 °F /  -8.2 °C 8.1 °F /  -13.3 °C 1025.6 in /  34726.8 hPa NNW 38.9 mph /  62.6 km/h 38.9 mph /  62.6 km/h 55 % 0.0 in /  0 mm 408.0 W/m2 CLR
14:50 17.2 °F /  -8.2 °C 8.4 °F /  -13.1 °C 1025.3 in /  34716.7 hPa NW 31.5 mph /  50.7 km/h 31.5 mph /  50.7 km/h 56 % 0.0 in /  0 mm 394.0 W/m2 CLR
14:56 17.2 °F /  -8.2 °C 8.1 °F /  -13.3 °C 1025.3 in /  34716.7 hPa North 38.9 mph /  62.6 km/h 38.9 mph /  62.6 km/h 55 % 0.0 in /  0 mm 388.0 W/m2 CLR
15:01 17.2 °F /  -8.2 °C 8.4 °F /  -13.1 °C 1025.3 in /  34716.7 hPa NNW 29.0 mph /  46.7 km/h 29.0 mph /  46.7 km/h 56 % 0.0 in /  0 mm 374.0 W/m2 CLR
15:44 16.7 °F /  -8.5 °C 8.1 °F /  -13.3 °C 1024.9 in /  34703.1 hPa NW 38.9 mph /  62.6 km/h 38.9 mph /  62.6 km/h 57 % 0.0 in /  0 mm 292.0 W/m2 CLR
15:50 16.7 °F /  -8.5 °C 8.1 °F /  -13.3 °C 1024.9 in /  34703.1 hPa NNW 29.6 mph /  47.6 km/h 29.6 mph /  47.6 km/h 57 % 0.0 in /  0 mm 278.0 W/m2 CLR
15:56 16.7 °F /  -8.5 °C 8.1 °F /  -13.3 °C 1024.9 in /  34703.1 hPa NW 27.8 mph /  44.7 km/h 27.8 mph /  44.7 km/h 57 % 0.0 in /  0 mm 265.0 W/m2 CLR
16:14 16.1 °F /  -8.8 °C 7.8 °F /  -13.4 °C 1024.9 in /  34703.1 hPa NNW 33.3 mph /  53.6 km/h 33.3 mph /  53.6 km/h 58 % 0.0 in /  0 mm 218.0 W/m2 CLR
16:43 15.6 °F /  -9.1 °C 7.6 °F /  -13.6 °C 1024.9 in /  34703.1 hPa NNW 38.9 mph /  62.6 km/h 38.9 mph /  62.6 km/h 59 % 0.0 in /  0 mm 128.0 W/m2 CLR
16:59 15.0 °F /  -9.4 °C 7.6 °F /  -13.6 °C 1024.9 in /  34703.1 hPa NW 29.6 mph /  47.6 km/h 29.6 mph /  47.6 km/h 61 % 0.0 in /  0 mm 86.0 W/m2 CLR
17:05 15.0 °F /  -9.4 °C 7.6 °F /  -13.6 °C 1024.9 in /  34703.1 hPa NNW 24.1 mph /  38.8 km/h 24.1 mph /  38.8 km/h 61 % 0.0 in /  0 mm 62.0 W/m2 SCT
17:21 14.4 °F /  -9.8 °C 7.2 °F /  -13.8 °C 1025.3 in /  34716.7 hPa NNW 32.2 mph /  51.8 km/h 32.2 mph /  51.8 km/h 62 % 0.0 in /  0 mm 32.0 W/m2 BKN
17:27 14.4 °F /  -9.8 °C 7.2 °F /  -13.8 °C 1025.3 in /  34716.7 hPa NNW 37.0 mph /  59.5 km/h 37.0 mph /  59.5 km/h 62 % 0.0 in /  0 mm 21.0 W/m2 BKN
17:43 13.9 °F /  -10.1 °C 7.4 °F /  -13.7 °C 1025.3 in /  34716.7 hPa NW 24.1 mph /  38.8 km/h 24.1 mph /  38.8 km/h 65 % 0.0 in /  0 mm 11.0 W/m2 BKN
17:50 13.9 °F /  -10.1 °C 7.4 °F /  -13.7 °C 1025.3 in /  34716.7 hPa NW 27.8 mph /  44.7 km/h 27.8 mph /  44.7 km/h 65 % 0.0 in /  0 mm 7.0 W/m2 BKN
17:58 13.3 °F /  -10.4 °C 7.1 °F /  -13.8 °C 1025.3 in /  34716.7 hPa NW 22.2 mph /  35.7 km/h 22.2 mph /  35.7 km/h 66 % 0.0 in /  0 mm 5.0 W/m2 OVC
18:07 13.3 °F /  -10.4 °C 7.3 °F /  -13.7 °C 1025.3 in /  34716.7 hPa NW 16.7 mph /  26.9 km/h 16.7 mph /  26.9 km/h 67 % 0.0 in /  0 mm 0.0 W/m2 CLR
18:49 12.8 °F /  -10.7 °C 7.0 °F /  -13.9 °C 1024.9 in /  34703.1 hPa WNW 25.7 mph /  41.4 km/h 25.7 mph /  41.4 km/h 68 % 0.0 in /  0 mm 0.0 W/m2 CLR
19:05 12.2 °F /  -11 °C 6.7 °F /  -14.1 °C 1024.9 in /  34703.1 hPa NW 27.8 mph /  44.7 km/h 27.8 mph /  44.7 km/h 69 % 0.0 in /  0 mm 0.0 W/m2 CLR
19:55 10.6 °F /  -11.9 °C 6.1 °F /  -14.4 °C 1024.9 in /  34703.1 hPa West 18.5 mph /  29.8 km/h 18.5 mph /  29.8 km/h 74 % 0.0 in /  0 mm 0.0 W/m2 CLR
20:09 10.6 °F /  -11.9 °C 6.1 °F /  -14.4 °C 1024.9 in /  34703.1 hPa NW 11.1 mph /  17.9 km/h 11.1 mph /  17.9 km/h 74 % 0.0 in /  0 mm 0.0 W/m2 CLR
20:22 10.6 °F /  -11.9 °C 6.1 °F /  -14.4 °C 1025.3 in /  34716.7 hPa WNW 14.8 mph /  23.8 km/h 14.8 mph /  23.8 km/h 74 % 0.0 in /  0 mm 0.0 W/m2 CLR
20:29 10.0 °F /  -12.2 °C 5.8 °F /  -14.6 °C 1025.3 in /  34716.7 hPa WNW 1.9 mph /  3.1 km/h 1.9 mph /  3.1 km/h 75 % 0.0 in /  0 mm 0.0 W/m2 CLR
21:20 10.0 °F /  -12.2 °C 5.6 °F /  -14.7 °C 1025.6 in /  34726.8 hPa NW 20.4 mph /  32.8 km/h 20.4 mph /  32.8 km/h 74 % 0.0 in /  0 mm 0.0 W/m2 CLR
21:27 10.0 °F /  -12.2 °C 5.6 °F /  -14.7 °C 1025.6 in /  34726.8 hPa NNW 16.7 mph /  26.9 km/h 16.7 mph /  26.9 km/h 74 % 0.0 in /  0 mm 0.0 W/m2 CLR
21:40 11.1 °F /  -11.6 °C 6.8 °F /  -14 °C 1025.6 in /  34726.8 hPa NNW 25.9 mph /  41.7 km/h 25.9 mph /  41.7 km/h 75 % 0.0 in /  0 mm 0.0 W/m2 CLR
21:58 11.1 °F /  -11.6 °C 6.7 °F /  -14.1 °C 1025.6 in /  34726.8 hPa NNW 22.2 mph /  35.7 km/h 22.2 mph /  35.7 km/h 74 % 0.0 in /  0 mm 0.0 W/m2 CLR
22:46 11.7 °F /  -11.3 °C 7.2 °F /  -13.8 °C 1025.3 in /  34716.7 hPa NW 20.4 mph /  32.8 km/h 20.4 mph /  32.8 km/h 74 % 0.0 in /  0 mm 0.0 W/m2 CLR
23:02 11.1 °F /  -11.6 °C 6.7 °F /  -14.1 °C 1025.3 in /  34716.7 hPa NW 18.5 mph /  29.8 km/h 18.5 mph /  29.8 km/h 74 % 0.0 in /  0 mm 0.0 W/m2 CLR
23:15 11.1 °F /  -11.6 °C 6.7 °F /  -14.1 °C 1024.9 in /  34703.1 hPa WNW 18.5 mph /  29.8 km/h 18.5 mph /  29.8 km/h 74 % 0.0 in /  0 mm 0.0 W/m2 CLR
23:32 10.6 °F /  -11.9 °C 6.1 °F /  -14.4 °C 1024.9 in /  34703.1 hPa WNW 20.4 mph /  32.8 km/h 20.4 mph /  32.8 km/h 74 % 0.0 in /  0 mm 0.0 W/m2 CLR
23:39 10.6 °F /  -11.9 °C 6.1 °F /  -14.4 °C 1024.9 in /  34703.1 hPa NW 20.4 mph /  32.8 km/h 20.4 mph /  32.8 km/h 74 % 0.0 in /  0 mm 0.0 W/m2 CLR
23:58 10.6 °F /  -11.9 °C 6.1 °F /  -14.4 °C 1024.9 in /  34703.1 hPa NW 18.5 mph /  29.8 km/h 18.5 mph /  29.8 km/h 74 % 0.0 in /  0 mm 0.0 W/m2 CLR
Lo Temps de Massalio
Compliments of Weather Underground - 512 kb